CheckWX is a tool to help pilots better visualize weather data.  It is not intended as a substitute for an official pre-flight weather briefing.

14:32:20 UTC

KPIR METAR
Pierre Regional Airport
Pierre, South Dakota, USA
Current

39 mins ago

KPIR 251353Z AUTO 31012KT 10SM FEW100 12/07 A3000 RMK AO2 SLP158 T01170072
Observed
Apr-25 @ 13:53 UTC
Wind
  • 310° at 12 KTS
Visibility
10 SM
Flight Rules
VFR
Cloud Levels
  • Few at 10,000' AGL
Temperature
12°C / 54°F
Dewpoint
C / 45°F
Humidity
72%
Altimeter
30" Hg
Pressure
1015.92 hPa
Previous

2 hours ago

KPIR 251253Z AUTO 00000KT 10SM CLR 09/07 A2999 RMK AO2 SLP153 T00940072
Observed
Apr-25 @ 12:53 UTC
Visibility
10 SM
Flight Rules
VFR
Cloud Levels
  • Clear skies
Temperature
C / 48°F
Dewpoint
C / 45°F
Humidity
87%
Altimeter
29.99" Hg
Pressure
1015.62 hPa
Previous

3 hours ago

KPIR 251153Z AUTO 31009KT 10SM CLR 07/06 A2996 RMK AO2 SLP143 60000 T00670061 10117 20067 53018
Observed
Apr-25 @ 11:53 UTC
Wind
  • 310° at 9 KTS
Visibility
10 SM
Flight Rules
VFR
Cloud Levels
  • Clear skies
Temperature
C / 45°F
Dewpoint
C / 43°F
Humidity
93%
Altimeter
29.96" Hg
Pressure
1014.52 hPa